Time;durP1;ratioP1;P1;durP2;ratioP2;P2;SDS_P1;SDS_P2;PMS_P1;PMS_P2;Temp;Humidity;BMP_temperature;BMP_pressure;BME280_temperature;BME280_humidity;BME280_pressure;Samples;Min_cycle;Max_cycle;Signal;HPM_P1;HPM_P2
2021/11/17 02:26:37;;;;;;;;;;;6.50;99.90;;;;;;6151406;23;20286;-68
2021/11/17 02:29:24;;;;;;;;;;;6.50;99.90;;;;;;6125523;23;19919;-68
2021/11/17 02:32:29;;;;;;;;;;;6.40;99.90;;;;;;6148205;23;19939;-69
2021/11/17 02:35:04;;;;;;;;;;;6.40;99.90;;;;;;6118167;23;19924;-68
2021/11/17 02:37:58;;;;;;;;;;;6.40;99.90;;;;;;6149667;23;19915;-69
2021/11/17 02:40:26;;;;;;;;;;;6.40;99.90;;;;;;6116318;23;20213;-68
2021/11/17 02:43:10;;;;;;;;;;;6.40;99.90;;;;;;6117133;23;19916;-68
2021/11/17 02:45:53;;;;;;;;;;;6.40;99.90;;;;;;6117483;23;20033;-68
2021/11/17 02:48:40;;;;;;;;;;;6.40;99.90;;;;;;6118050;23;19916;-69
2021/11/17 02:51:18;;;;;;;;;;;;;;;;;;;;;
2021/11/17 02:54:01;;;;;;;;;;;6.30;99.90;;;;;;6118205;23;19964;-69
2021/11/17 02:56:48;;;;;;;;;;;6.30;99.90;;;;;;6094854;23;19937;-69
2021/11/17 02:59:31;;;;;;;;;;;6.30;99.90;;;;;;6093867;23;19915;-69
2021/11/17 03:02:11;;;;;;;;;;;6.40;99.90;;;;;;6116770;23;19944;-68
2021/11/17 03:04:37;;;;;;;;;;;6.40;99.90;;;;;;6117003;23;19944;-69
2021/11/17 03:10:27;;;;;;;;;;;6.40;99.90;;;;;;6116949;23;20229;-68
2021/11/17 03:13:16;;;;;;;;;;;6.40;99.90;;;;;;6117567;23;19912;-68
2021/11/17 03:16:09;;;;;;;;;;;6.40;99.90;;;;;;6099743;23;20406;-68
2021/11/17 03:18:46;;;;;;;;;;;6.30;99.90;;;;;;6148486;23;19939;-68
2021/11/17 03:21:26;;;;;;;;;;;6.30;99.90;;;;;;6147966;23;19980;-67
2021/11/17 03:24:07;;;;;;;;;;;6.30;99.90;;;;;;6150299;23;19991;-68
2021/11/17 03:26:34;;;;;;;;;;;6.30;99.90;;;;;;6150601;23;19927;-69
2021/11/17 03:29:21;;;;;;;11.00;5.60;;;6.30;99.90;;;;;;6149895;23;24449;-68
2021/11/17 03:32:05;;;;;;;11.23;6.43;;;6.30;99.90;;;;;;6151274;23;20347;-69
2021/11/17 03:34:48;;;;;;;11.13;6.00;;;6.30;99.90;;;;;;6150454;23;20529;-69
2021/11/17 03:37:40;;;;;;;598.10;465.70;;;6.30;99.90;;;;;;6151464;23;20497;-69
2021/11/17 03:40:45;;;;;;;317.00;269.77;;;6.20;99.90;;;;;;6153418;23;20564;-68
2021/11/17 03:43:16;;;;;;;;;;;6.20;99.90;;;;;;6152056;23;20576;-68
2021/11/17 03:46:03;;;;;;;;;;;6.20;99.90;;;;;;6151667;23;20687;-68
2021/11/17 03:49:06;;;;;;;40.65;33.05;;;6.20;99.90;;;;;;6152817;23;24443;-68
2021/11/17 03:52:19;;;;;;;30.50;27.35;;;6.30;99.90;;;;;;6147808;23;20711;-69
2021/11/17 03:57:59;;;;;;;37.70;32.05;;;6.40;99.90;;;;;;6150265;23;20764;-68
2021/11/17 04:00:54;;;;;;;38.00;32.65;;;6.40;99.90;;;;;;6152091;23;21017;-68
2021/11/17 04:03:58;;;;;;;35.50;31.60;;;6.40;99.90;;;;;;6145712;23;24492;-68
2021/11/17 04:06:39;;;;;;;40.10;34.70;;;6.50;99.90;;;;;;6150141;23;20763;-69
2021/11/17 04:09:29;;;;;;;34.05;30.35;;;6.40;99.90;;;;;;6149698;23;20720;-68
2021/11/17 04:12:42;;;;;;;36.25;31.15;;;6.50;99.90;;;;;;6148378;23;20722;-68
2021/11/17 04:15:27;;;;;;;33.40;29.80;;;6.50;99.90;;;;;;6140498;23;20652;-68
2021/11/17 04:18:15;;;;;;;36.05;32.25;;;6.50;99.90;;;;;;6150216;23;20638;-68
2021/11/17 04:20:59;;;;;;;34.00;30.40;;;6.50;99.90;;;;;;6149123;23;20788;-69
2021/11/17 04:23:49;;;;;;;32.80;29.30;;;6.50;99.90;;;;;;6150009;23;24702;-68
2021/11/17 04:26:21;;;;;;;33.37;29.87;;;6.40;99.90;;;;;;6150726;23;20640;-69
2021/11/17 04:29:01;;;;;;;35.20;31.50;;;6.40;99.90;;;;;;6149097;23;20752;-69
2021/11/17 04:32:04;;;;;;;34.40;30.60;;;6.40;99.90;;;;;;6146969;23;20690;-68
2021/11/17 04:35:11;;;;;;;36.10;32.30;;;6.40;99.90;;;;;;6148345;23;20833;-69
2021/11/17 04:37:54;;;;;;;35.27;31.47;;;6.50;99.90;;;;;;6119467;23;24403;-69
2021/11/17 04:40:50;;;;;;;31.75;28.65;;;6.40;99.90;;;;;;6149383;23;21292;-68
2021/11/17 04:43:49;;;;;;;37.00;32.60;;;6.50;99.90;;;;;;6145131;23;21243;-69
2021/11/17 04:46:39;;;;;;;37.45;33.10;;;6.50;99.90;;;;;;6149874;23;20679;-68
2021/11/17 04:49:48;;;;;;;33.70;30.30;;;6.50;99.90;;;;;;6147836;23;20722;-68
2021/11/17 04:52:22;;;;;;;32.67;29.37;;;6.50;99.90;;;;;;6149681;23;25294;-68
2021/11/17 04:55:23;;;;;;;;;;;;;;;;;;;;;
2021/11/17 04:58:10;;;;;;;30.77;27.77;;;6.40;99.90;;;;;;6147648;23;21100;-68
2021/11/17 05:01:16;;;;;;;29.50;26.70;;;6.40;99.90;;;;;;6148004;23;25172;-69
2021/11/17 05:03:57;;;;;;;32.35;28.95;;;6.40;99.90;;;;;;6126787;23;24383;-68
2021/11/17 05:06:28;;;;;;;29.85;27.05;;;6.40;99.90;;;;;;6148777;23;20674;-67
2021/11/17 05:09:05;;;;;;;31.75;28.75;;;6.80;99.90;;;;;;6148815;23;20751;-68
2021/11/17 05:12:01;;;;;;;31.70;28.40;;;6.50;99.90;;;;;;6148309;23;24365;-68
2021/11/17 05:18:03;;;;;;;36.20;31.80;;;6.50;99.90;;;;;;6149782;23;21035;-69
2021/11/17 05:20:44;;;;;;;;;;;6.50;99.90;;;;;;6148280;23;20644;-69
2021/11/17 05:23:45;;;;;;;35.27;30.27;;;6.50;99.90;;;;;;6150055;23;20636;-69
2021/11/17 05:26:23;;;;;;;30.23;27.13;;;6.50;99.90;;;;;;6123781;23;25119;-69
2021/11/17 05:29:11;;;;;;;34.20;30.55;;;6.60;99.90;;;;;;6147546;23;24431;-69
2021/11/17 05:32:05;;;;;;;28.20;25.60;;;6.60;99.90;;;;;;6141418;23;20675;-68
2021/11/17 05:34:50;;;;;;;27.65;24.95;;;6.60;99.90;;;;;;6146574;23;24734;-68
2021/11/17 05:37:39;;;;;;;28.30;25.50;;;6.60;99.90;;;;;;6148661;23;24415;-68
2021/11/17 05:40:18;;;;;;;26.80;24.20;;;6.60;99.90;;;;;;6120482;23;20674;-68
2021/11/17 05:43:19;;;;;;;32.45;28.75;;;6.50;99.90;;;;;;6146462;23;20864;-68
2021/11/17 05:46:12;;;;;;;;;;;;;;;;;;;;;
2021/11/17 05:49:16;;;;;;;35.40;29.50;;;6.50;99.90;;;;;;6096209;23;24551;-68
2021/11/17 05:52:12;;;;;;;31.30;27.75;;;6.50;99.90;;;;;;6026977;23;20686;-68
2021/11/17 05:54:53;;;;;;;30.90;27.60;;;6.50;99.90;;;;;;6092298;23;24447;-67
2021/11/17 05:57:43;;;;;;;34.60;30.40;;;6.50;99.90;;;;;;6118415;23;24444;-67
2021/11/17 06:00:33;;;;;;;36.00;29.20;;;6.50;99.90;;;;;;6117629;23;24376;-68
2021/11/17 06:03:01;;;;;;;33.95;28.95;;;6.50;99.90;;;;;;6118308;23;20712;-68
2021/11/17 06:05:30;;;;;;;38.53;31.77;;;6.50;99.90;;;;;;6118144;23;20673;-68
2021/11/17 06:07:56;;;;;;;32.30;28.70;;;6.50;99.90;;;;;;6118392;23;20693;-68
2021/11/17 06:10:36;;;;;;;30.10;26.90;;;6.50;99.90;;;;;;6092654;23;20823;-69
2021/11/17 06:13:05;;;;;;;31.77;28.47;;;6.50;99.90;;;;;;6116083;23;20710;-68
2021/11/17 06:15:35;;;;;;;31.00;27.80;;;6.50;99.90;;;;;;6089211;23;24373;-68
2021/11/17 06:18:04;;;;;;;30.00;27.20;;;6.50;99.90;;;;;;6110397;23;20733;-68
2021/11/17 06:20:32;;;;;;;30.40;27.20;;;6.50;99.90;;;;;;6117200;23;20718;-68
2021/11/17 06:23:08;;;;;;;34.70;29.50;;;6.50;99.90;;;;;;6116049;23;20724;-68
2021/11/17 06:25:37;;;;;;;34.45;31.15;;;6.50;99.90;;;;;;6114576;23;21004;-68
2021/11/17 06:28:06;;;;;;;30.05;26.95;;;6.50;99.90;;;;;;6116330;23;21195;-68
2021/11/17 06:30:41;;;;;;;28.90;25.90;;;6.40;99.90;;;;;;6118993;23;21015;-67
2021/11/17 06:33:12;;;;;;;;;;;6.50;99.90;;;;;;6115175;23;20790;-67
2021/11/17 06:35:43;;;;;;;29.40;26.10;;;6.40;99.90;;;;;;6121026;23;20617;-68
2021/11/17 06:38:10;;;;;;;33.50;29.20;;;6.40;99.90;;;;;;6119045;23;20682;-68
2021/11/17 06:40:47;;;;;;;34.85;29.80;;;6.40;99.90;;;;;;6121151;23;20676;-68
2021/11/17 06:43:16;;;;;;;34.10;28.80;;;6.40;99.90;;;;;;6092733;23;20755;-68
2021/11/17 06:45:47;;;;;;;37.40;30.30;;;6.50;99.90;;;;;;6117940;23;20680;-68
2021/11/17 06:48:15;;;;;;;39.10;30.55;;;6.30;99.90;;;;;;6147205;23;20698;-68
2021/11/17 06:50:46;;;;;;;37.45;30.60;;;6.40;99.90;;;;;;6148649;23;20635;-68
2021/11/17 06:53:12;;;;;;;34.00;28.90;;;6.40;99.90;;;;;;6149216;23;20671;-68
2021/11/17 06:55:40;;;;;;;33.80;29.70;;;6.40;99.90;;;;;;6148679;23;20716;-68
2021/11/17 06:58:11;;;;;;;33.08;28.25;;;6.40;99.90;;;;;;6148104;23;20726;-67
2021/11/17 07:00:46;;;;;;;35.50;29.15;;;6.40;99.90;;;;;;6150830;23;21155;-67
2021/11/17 07:03:20;;;;;;;34.45;28.10;;;6.50;99.90;;;;;;6148689;23;24475;-68
2021/11/17 07:05:46;;;;;;;37.85;30.80;;;6.50;99.90;;;;;;6151191;23;24360;-68
2021/11/17 07:08:23;;;;;;;37.28;29.92;;;6.50;99.90;;;;;;6153082;23;21256;-70
2021/11/17 07:10:49;;;;;;;34.40;28.10;;;6.60;99.90;;;;;;6151721;23;24338;-67
2021/11/17 07:13:20;;;;;;;34.10;28.60;;;6.60;99.90;;;;;;6150956;23;20717;-68
2021/11/17 07:15:50;;;;;;;39.10;31.40;;;6.70;99.90;;;;;;6151103;23;20772;-68
2021/11/17 07:18:17;;;;;;;34.40;28.40;;;6.70;99.90;;;;;;6152132;23;21188;-67
2021/11/17 07:20:44;;;;;;;33.50;28.05;;;6.70;99.90;;;;;;6151828;23;24460;-68
2021/11/17 07:23:12;;;;;;;;;;;6.80;99.90;;;;;;6149294;23;20686;-68
2021/11/17 07:25:45;;;;;;;28.35;25.55;;;6.80;99.90;;;;;;6148505;23;20742;-68
2021/11/17 07:28:13;;;;;;;31.10;27.25;;;6.80;99.90;;;;;;6151681;23;24502;-68
2021/11/17 07:30:44;;;;;;;31.80;28.50;;;6.80;99.90;;;;;;6149266;23;20695;-68
2021/11/17 07:33:13;;;;;;;29.47;26.27;;;6.80;99.90;;;;;;6150829;23;20712;-68
2021/11/17 07:35:40;;;;;;;;;;;6.80;99.90;;;;;;6152145;23;20736;-67
2021/11/17 07:38:11;;;;;;;36.20;29.70;;;6.80;99.90;;;;;;6151702;23;21058;-67
2021/11/17 07:40:44;;;;;;;30.00;26.80;;;6.80;99.90;;;;;;6151168;23;20701;-68
2021/11/17 07:43:10;;;;;;;27.10;24.40;;;6.70;99.90;;;;;;6150134;23;24480;-67
2021/11/17 07:45:37;;;;;;;32.50;29.00;;;6.70;99.90;;;;;;6150859;23;25074;-68
2021/11/17 07:48:12;;;;;;;28.70;25.80;;;6.70;99.90;;;;;;6151081;23;24933;-68
2021/11/17 07:50:39;;;;;;;27.55;24.75;;;6.70;99.90;;;;;;6152296;23;20677;-68
2021/11/17 07:53:12;;;;;;;30.55;26.90;;;6.70;99.90;;;;;;6151606;23;20701;-68
2021/11/17 07:55:45;;;;;;;32.15;27.80;;;6.60;99.90;;;;;;6151872;23;24345;-67
2021/11/17 07:58:12;;;;;;;33.67;28.05;;;6.60;99.90;;;;;;6151741;23;20695;-67
2021/11/17 08:00:40;;;;;;;31.40;28.00;;;6.60;99.90;;;;;;6149525;23;21255;-67
2021/11/17 08:03:11;;;;;;;31.20;27.80;;;6.60;99.90;;;;;;6149900;23;20711;-67
2021/11/17 08:05:43;;;;;;;31.30;27.70;;;6.60;99.90;;;;;;6150861;23;20619;-68
2021/11/17 08:08:09;;;;;;;30.00;26.75;;;6.70;99.90;;;;;;6151912;23;20647;-68
2021/11/17 08:10:37;;;;;;;29.20;26.10;;;6.70;99.90;;;;;;6150211;23;20788;-67
2021/11/17 08:13:03;;;;;;;27.50;24.70;;;6.70;99.90;;;;;;6149034;23;21040;-67
2021/11/17 08:15:32;;;;;;;27.60;24.70;;;6.60;99.90;;;;;;6151122;23;24372;-67
2021/11/17 08:18:00;;;;;;;28.60;25.70;;;6.60;99.90;;;;;;6151484;23;20868;-68
2021/11/17 08:20:26;;;;;;;28.50;25.40;;;6.60;99.90;;;;;;6149361;23;20661;-68
2021/11/17 08:22:58;;;;;;;25.75;23.25;;;6.60;99.90;;;;;;6145438;23;20733;-67
2021/11/17 08:25:25;;;;;;;;;;;6.70;99.90;;;;;;6144174;23;20700;-67
2021/11/17 08:27:59;;;;;;;26.90;24.20;;;6.80;99.90;;;;;;6137889;23;20658;-68
2021/11/17 08:30:28;;;;;;;26.60;24.10;;;6.80;99.90;;;;;;6143568;23;21164;-68
2021/11/17 08:32:59;;;;;;;28.15;25.25;;;6.70;99.90;;;;;;6148345;23;21296;-68
2021/11/17 08:35:31;;;;;;;28.20;25.20;;;6.70;99.90;;;;;;6151947;23;24347;-68
2021/11/17 08:37:58;;;;;;;27.50;24.60;;;6.70;99.90;;;;;;6149573;23;20623;-68
2021/11/17 08:40:27;;;;;;;;;;;6.80;99.90;;;;;;6141927;23;21259;-67
2021/11/17 08:42:52;;;;;;;;;;;6.70;99.90;;;;;;6143527;23;20604;-67
2021/11/17 08:45:18;;;;;;;;;;;6.80;99.90;;;;;;6145023;23;21026;-68
2021/11/17 08:47:44;;;;;;;;;;;6.80;99.90;;;;;;6149077;23;19922;-68
2021/11/17 08:50:11;;;;;;;;;;;6.90;99.90;;;;;;6142660;23;25089;-67
2021/11/17 08:52:37;;;;;;;;;;;6.90;99.90;;;;;;6144383;23;20639;-67
2021/11/17 08:55:08;;;;;;;27.30;24.50;;;6.90;99.90;;;;;;6144069;23;20647;-68
2021/11/17 08:57:34;;;;;;;28.20;25.20;;;7.00;99.90;;;;;;6140899;23;20678;-67
2021/11/17 09:00:01;;;;;;;29.60;26.40;;;7.00;99.90;;;;;;6145044;23;20654;-68
2021/11/17 09:02:30;;;;;;;27.90;25.00;;;7.10;99.90;;;;;;6145994;23;21254;-67
2021/11/17 09:05:03;;;;;;;28.85;25.75;;;7.10;99.90;;;;;;6145357;23;20659;-68
2021/11/17 09:07:31;;;;;;;27.73;24.83;;;7.10;99.90;;;;;;6149025;23;20634;-68
2021/11/17 09:09:57;;;;;;;;;;;7.10;99.90;;;;;;6149011;23;20820;-68
2021/11/17 09:12:25;;;;;;;;;;;7.10;99.90;;;;;;6143663;23;20651;-66
2021/11/17 09:14:51;;;;;;;28.80;25.80;;;7.10;99.90;;;;;;6147145;23;21130;-67
2021/11/17 09:17:17;;;;;;;29.90;26.10;;;7.20;99.90;;;;;;6149584;23;24364;-67
2021/11/17 09:19:42;;;;;;;29.20;26.00;;;7.20;99.90;;;;;;6150743;23;20709;-69
2021/11/17 09:22:13;;;;;;;27.30;24.50;;;7.20;99.90;;;;;;6142335;23;20683;-68
2021/11/17 09:24:41;;;;;;;27.55;24.70;;;7.20;99.90;;;;;;6143614;23;20769;-69
2021/11/17 09:27:07;;;;;;;;;;;7.20;99.90;;;;;;6139752;23;20643;-68
2021/11/17 09:29:37;;;;;;;;;;;7.30;99.90;;;;;;6132332;23;20714;-66
2021/11/17 09:32:12;;;;;;;;;;;7.30;99.90;;;;;;6140215;23;20619;-67
2021/11/17 09:34:38;;;;;;;27.90;25.20;;;7.30;99.90;;;;;;6137233;23;21012;-66
2021/11/17 09:37:08;;;;;;;29.60;26.40;;;7.30;99.90;;;;;;6146264;23;20568;-68
2021/11/17 09:39:36;;;;;;;27.83;24.93;;;7.30;99.90;;;;;;6148577;23;20761;-68
2021/11/17 09:42:03;;;;;;;30.40;27.10;;;7.30;99.90;;;;;;6149113;23;20731;-68
2021/11/17 09:44:35;;;;;;;28.50;25.50;;;7.30;99.90;;;;;;6150280;23;24426;-68
2021/11/17 09:47:06;;;;;;;27.70;24.90;;;7.30;99.90;;;;;;6144131;23;20744;-67
2021/11/17 09:50:07;;;;;;;29.10;26.00;;;7.30;99.90;;;;;;6146095;23;25073;-67
2021/11/17 09:52:46;;;;;;;27.60;24.80;;;7.30;99.90;;;;;;6145848;23;20662;-67
2021/11/17 09:55:12;;;;;;;;;;;7.40;99.90;;;;;;6138245;23;20584;-67
2021/11/17 09:57:43;;;;;;;;;;;7.50;99.90;;;;;;6134219;23;20954;-67
2021/11/17 10:00:12;;;;;;;;;;;7.50;99.90;;;;;;6137632;23;20630;-67
2021/11/17 10:02:38;;;;;;;;;;;7.50;99.90;;;;;;6132371;23;21021;-67
2021/11/17 10:05:04;;;;;;;27.90;24.90;;;7.50;99.90;;;;;;6140012;23;25123;-67
2021/11/17 10:13:21;;;;;;;31.90;27.15;;;7.40;99.90;;;;;;6149530;23;20688;-67
2021/11/17 10:15:53;;;;;;;27.90;25.00;;;7.30;99.90;;;;;;6147826;23;20759;-68
2021/11/17 10:18:32;;;;;;;29.40;26.30;;;7.30;99.90;;;;;;6148179;23;20724;-67
2021/11/17 10:21:09;;;;;;;29.60;26.40;;;7.40;99.90;;;;;;6150562;23;20776;-68
2021/11/17 10:24:02;;;;;;;37.05;30.80;;;7.40;99.90;;;;;;6149651;23;20713;-68
2021/11/17 10:26:28;;;;;;;;;;;7.30;99.90;;;;;;6152604;23;24345;-68
2021/11/17 10:29:01;;;;;;;30.20;26.90;;;7.30;99.90;;;;;;6150668;23;25019;-67
2021/11/17 10:31:45;;;;;;;29.20;26.30;;;7.40;99.90;;;;;;6146215;23;21043;-68
2021/11/17 10:34:28;;;;;;;31.95;27.35;;;7.50;99.90;;;;;;6149912;23;20661;-68
2021/11/17 10:37:26;;;;;;;30.93;27.70;;;7.40;99.90;;;;;;6150303;23;20647;-67
2021/11/17 10:39:52;;;;;;;38.30;31.70;;;7.50;99.90;;;;;;6149599;23;24392;-67
2021/11/17 10:42:23;;;;;;;34.70;29.30;;;7.50;99.90;;;;;;6148764;23;24866;-67
2021/11/17 10:45:15;;;;;;;33.15;29.05;;;7.50;99.90;;;;;;6151536;23;21172;-68
2021/11/17 10:47:45;;;;;;;28.80;22.95;;;7.60;99.90;;;;;;6147706;23;20749;-67
2021/11/17 10:50:43;;;;;;;37.60;30.30;;;7.60;99.90;;;;;;6149550;23;24423;-67
2021/11/17 10:53:23;;;;;;;32.85;25.00;;;7.70;99.90;;;;;;6150437;23;20725;-67
2021/11/17 10:55:53;;;;;;;36.60;30.05;;;7.70;99.90;;;;;;6151162;23;21193;-68
2021/11/17 10:58:37;;;;;;;34.20;29.60;;;7.70;99.90;;;;;;6149557;23;20671;-68
2021/11/17 11:01:26;;;;;;;34.30;28.95;;;7.80;99.90;;;;;;6149361;23;20664;-66
2021/11/17 11:03:58;;;;;;;34.30;28.65;;;7.80;99.90;;;;;;6150732;23;20612;-68
2021/11/17 11:06:32;;;;;;;368.17;282.42;;;7.80;99.90;;;;;;6150592;23;20658;-67
2021/11/17 11:09:07;;;;;;;433.52;389.85;;;7.90;99.90;;;;;;6150322;23;24940;-68
2021/11/17 11:11:39;;;;;;;483.90;438.02;;;7.90;99.90;;;;;;6146572;23;24372;-68
2021/11/17 11:14:26;;;;;;;509.15;461.85;;;7.90;99.90;;;;;;6148285;23;24703;-67
2021/11/17 11:17:24;;;;;;;502.67;456.88;;;7.90;99.90;;;;;;6149306;23;24359;-67
2021/11/17 11:19:54;;;;;;;439.77;394.63;;;8.00;99.90;;;;;;6151130;23;24472;-68
2021/11/17 11:22:29;;;;;;;473.20;427.60;;;8.10;99.90;;;;;;6149143;23;24368;-67
2021/11/17 11:25:18;;;;;;;313.73;240.52;;;8.00;99.90;;;;;;6148243;23;24747;-68
2021/11/17 11:28:22;;;;;;;388.33;313.55;;;8.10;99.90;;;;;;6148699;23;25073;-67
2021/11/17 11:31:07;;;;;;;26.43;14.53;;;8.30;99.90;;;;;;6149025;23;24413;-68
2021/11/17 11:33:55;;;;;;;26.23;14.83;;;8.30;99.90;;;;;;6150523;23;20676;-68
2021/11/17 11:36:46;;;;;;;25.87;13.20;;;8.40;99.90;;;;;;6151797;23;20534;-67
2021/11/17 11:39:14;;;;;;;24.30;12.73;;;8.20;99.90;;;;;;6151855;23;20623;-67
2021/11/17 11:42:06;;;;;;;22.23;13.40;;;8.20;99.90;;;;;;6149259;23;20585;-68
2021/11/17 11:44:40;;;;;;;28.30;15.40;;;8.20;99.90;;;;;;6151150;23;20536;-68
2021/11/17 11:47:09;;;;;;;26.20;14.47;;;8.10;99.90;;;;;;6150712;23;20937;-67
2021/11/17 11:49:55;;;;;;;27.87;15.50;;;8.20;99.90;;;;;;6151289;23;20605;-67
2021/11/17 11:52:20;;;;;;;33.07;16.23;;;8.20;99.90;;;;;;6152942;23;20597;-67
2021/11/17 11:54:54;;;;;;;27.40;15.13;;;8.20;99.90;;;;;;6152790;23;20950;-68
2021/11/17 11:57:55;;;;;;;29.13;15.73;;;8.20;99.90;;;;;;6153448;23;20604;-68
2021/11/17 12:00:38;;;;;;;32.03;17.40;;;8.20;99.90;;;;;;6151636;23;20592;-67
2021/11/17 12:03:13;;;;;;;33.87;17.87;;;8.20;99.90;;;;;;6151517;23;20593;-67
2021/11/17 12:05:39;;;;;;;32.43;17.50;;;8.20;99.90;;;;;;6153130;23;20501;-68
2021/11/17 12:08:13;;;;;;;30.03;17.07;;;8.20;99.90;;;;;;6150156;23;20613;-67
2021/11/17 12:11:06;;;;;;;31.17;17.07;;;8.20;99.90;;;;;;6152098;23;20509;-68
2021/11/17 12:14:01;;;;;;;33.70;16.30;;;8.30;99.90;;;;;;6147880;23;20581;-68
2021/11/17 12:16:37;;;;;;;35.90;18.13;;;8.30;99.90;;;;;;6147845;23;20720;-68
2021/11/17 12:19:26;;;;;;;33.20;17.63;;;8.40;99.90;;;;;;6148217;23;20608;-68
2021/11/17 12:22:18;;;;;;;36.17;16.80;;;8.50;99.90;;;;;;6145607;23;20607;-67
2021/11/17 12:24:48;;;;;;;35.73;17.60;;;8.50;99.90;;;;;;6145800;23;20568;-68
2021/11/17 12:27:21;;;;;;;33.53;18.60;;;8.50;99.90;;;;;;6139138;23;20645;-69
2021/11/17 12:29:53;;;;;;;34.67;19.00;;;8.60;99.90;;;;;;6149327;23;20684;-68
2021/11/17 12:32:37;;;;;;;35.77;19.20;;;8.70;99.90;;;;;;6146601;23;20589;-68
2021/11/17 12:35:36;;;;;;;31.70;18.40;;;9.00;99.90;;;;;;6149172;23;21138;-68
2021/11/17 12:38:09;;;;;;;32.67;19.07;;;9.20;99.90;;;;;;6147505;23;21065;-68
2021/11/17 12:41:10;;;;;;;30.20;17.67;;;9.20;99.90;;;;;;6148784;23;20908;-67
2021/11/17 12:43:38;;;;;;;32.53;18.03;;;9.20;99.90;;;;;;6149060;23;20627;-68
2021/11/17 12:46:08;;;;;;;71.00;63.83;;;9.30;99.90;;;;;;6148097;23;20684;-69
2021/11/17 12:48:48;;;;;;;337.80;259.10;;;9.30;99.90;;;;;;6148419;23;20623;-69
2021/11/17 12:51:32;;;;;;;23.93;14.43;;;9.40;99.90;;;;;;6148102;23;20617;-68
2021/11/17 12:54:15;;;;;;;26.83;15.90;;;9.40;99.90;;;;;;6147541;23;20590;-69
2021/11/17 12:56:49;;;;;;;30.03;15.70;;;9.50;99.90;;;;;;6146350;23;21065;-67
2021/11/17 12:59:32;;;;;;;85.63;78.07;;;9.40;99.90;;;;;;6148419;23;20564;-68
2021/11/17 13:02:11;;;;;;;29.80;15.37;;;9.50;99.90;;;;;;6144880;23;20655;-67
2021/11/17 13:04:42;;;;;;;26.53;15.83;;;9.60;99.90;;;;;;6147378;23;20855;-68
2021/11/17 13:07:13;;;;;;;29.70;16.00;;;9.60;99.90;;;;;;6147979;23;20546;-68
2021/11/17 13:09:42;;;;;;;28.20;15.47;;;9.60;99.90;;;;;;6146796;23;21256;-68
2021/11/17 13:12:09;;;;;;;24.10;14.80;;;9.50;99.90;;;;;;6146246;23;20604;-67
2021/11/17 13:14:43;;;;;;;29.23;14.40;;;9.50;99.90;;;;;;6146272;23;20533;-67
2021/11/17 13:17:39;;;;;;;24.67;15.90;;;9.50;99.90;;;;;;6145008;23;20976;-69
2021/11/17 13:20:16;;;;;;;23.10;13.50;;;9.40;99.90;;;;;;6146022;23;20655;-67
2021/11/17 13:22:50;;;;;;;23.37;14.07;;;9.50;99.90;;;;;;6142135;23;21498;-68
2021/11/17 13:25:26;;;;;;;26.50;14.93;;;9.50;99.90;;;;;;6143235;23;20985;-67
2021/11/17 13:27:55;;;;;;;22.50;14.23;;;9.50;99.90;;;;;;6141654;23;20553;-68
2021/11/17 13:30:38;;;;;;;25.30;14.73;;;9.60;99.90;;;;;;6140551;23;20690;-68
2021/11/17 13:33:30;;;;;;;18.97;11.30;;;9.50;99.90;;;;;;6140995;23;20639;-68
2021/11/17 13:36:14;;;;;;;160.50;143.13;;;9.60;99.90;;;;;;6140764;23;20562;-67
2021/11/17 13:38:53;;;;;;;24.57;13.47;;;9.60;99.90;;;;;;6140771;23;20546;-68
2021/11/17 13:41:21;;;;;;;148.10;136.07;;;9.60;99.90;;;;;;6141105;23;20572;-67
2021/11/17 13:43:49;;;;;;;94.50;77.27;;;9.60;99.90;;;;;;6143416;23;20530;-68
2021/11/17 13:46:18;;;;;;;22.83;14.00;;;9.60;99.90;;;;;;6146372;23;20616;-69
2021/11/17 13:48:50;;;;;;;24.83;13.67;;;9.70;99.90;;;;;;6142071;23;20665;-67
2021/11/17 13:51:24;;;;;;;26.77;16.10;;;9.70;99.90;;;;;;6141076;23;20604;-67
2021/11/17 13:53:50;;;;;;;27.73;15.50;;;9.70;99.90;;;;;;6141833;23;20601;-66
2021/11/17 13:56:21;;;;;;;28.83;15.20;;;9.70;99.90;;;;;;6141931;23;20624;-66
2021/11/17 13:58:49;;;;;;;24.37;16.10;;;9.80;99.90;;;;;;6142652;23;20565;-67
2021/11/17 14:01:15;;;;;;;25.70;15.00;;;9.80;99.90;;;;;;6140354;23;20576;-67
2021/11/17 14:03:41;;;;;;;29.30;15.33;;;9.80;99.90;;;;;;6143215;23;20530;-67
2021/11/17 14:06:11;;;;;;;27.10;15.27;;;9.80;99.90;;;;;;6142011;23;21173;-68
2021/11/17 14:08:39;;;;;;;25.50;13.47;;;9.90;99.90;;;;;;6138748;23;20196;-67
2021/11/17 14:11:07;;;;;;;22.83;13.50;;;9.90;99.90;;;;;;6141234;23;20537;-70
2021/11/17 14:13:34;;;;;;;24.47;13.87;;;9.90;99.90;;;;;;6141895;23;20903;-68
2021/11/17 14:16:02;;;;;;;29.37;15.23;;;9.90;99.90;;;;;;6146187;23;21049;-69
2021/11/17 14:18:31;;;;;;;28.50;16.47;;;9.90;99.90;;;;;;6145624;23;20537;-68
2021/11/17 14:20:58;;;;;;;27.60;15.60;;;10.00;99.90;;;;;;6144592;23;20580;-68
2021/11/17 14:23:30;;;;;;;29.50;16.17;;;9.90;99.90;;;;;;6142541;23;20628;-68
2021/11/17 14:25:58;;;;;;;30.03;15.80;;;10.00;99.90;;;;;;6142822;23;20529;-67
2021/11/17 14:28:38;;;;;;;26.10;15.77;;;10.00;99.90;;;;;;6145220;23;20640;-67
2021/11/17 14:31:13;;;;;;;31.07;16.27;;;10.00;99.90;;;;;;6138851;23;20537;-68
2021/11/17 14:33:45;;;;;;;25.10;15.90;;;10.00;99.90;;;;;;6142622;23;20547;-69
2021/11/17 14:36:14;;;;;;;22.40;15.20;;;10.00;99.90;;;;;;6142452;23;20808;-67
2021/11/17 14:38:41;;;;;;;25.87;14.90;;;10.00;99.90;;;;;;6139324;23;20592;-68
2021/11/17 14:41:10;;;;;;;26.90;15.70;;;10.10;99.90;;;;;;6141220;23;20560;-68
2021/11/17 14:43:38;;;;;;;28.17;15.33;;;10.10;99.90;;;;;;6143317;23;20556;-68
2021/11/17 14:46:15;;;;;;;23.10;14.80;;;10.10;99.90;;;;;;6138266;23;20584;-68
2021/11/17 14:48:41;;;;;;;31.50;15.63;;;10.10;99.90;;;;;;6142882;23;20671;-67
2021/11/17 14:51:07;;;;;;;27.37;16.23;;;10.00;99.90;;;;;;6143084;23;21082;-67
2021/11/17 14:53:32;;;;;;;25.37;15.27;;;10.10;99.90;;;;;;6143066;23;20565;-68
2021/11/17 14:55:58;;;;;;;27.47;17.00;;;10.10;99.90;;;;;;6143548;23;20158;-68
2021/11/17 14:58:26;;;;;;;33.57;16.60;;;10.10;99.90;;;;;;6140901;23;20161;-68
2021/11/17 15:00:58;;;;;;;27.57;16.07;;;10.10;99.90;;;;;;6143969;23;20188;-67
2021/11/17 15:03:24;;;;;;;28.20;15.87;;;10.10;99.90;;;;;;6143560;23;20688;-67
2021/11/17 15:05:50;;;;;;;27.30;15.37;;;10.10;99.90;;;;;;6147230;23;20565;-68
2021/11/17 15:08:17;;;;;;;27.23;15.83;;;10.10;99.90;;;;;;6145416;23;20182;-68
2021/11/17 15:10:44;;;;;;;32.00;15.20;;;10.10;99.90;;;;;;6149319;23;20656;-68
2021/11/17 15:13:09;;;;;;;29.00;15.90;;;10.10;99.90;;;;;;6146489;23;20621;-68
2021/11/17 15:15:39;;;;;;;30.73;16.40;;;10.00;99.90;;;;;;6148574;23;20552;-68
2021/11/17 15:18:08;;;;;;;27.87;15.50;;;10.00;99.90;;;;;;6148208;23;20161;-68
2021/11/17 15:20:35;;;;;;;27.50;15.97;;;10.00;99.90;;;;;;6146376;23;20563;-67
2021/11/17 15:23:03;;;;;;;32.67;13.53;;;10.00;99.90;;;;;;6147326;23;20584;-68
2021/11/17 15:25:34;;;;;;;418.50;350.50;;;9.90;99.90;;;;;;6149142;23;20529;-68
2021/11/17 15:28:06;;;;;;;104.27;82.40;;;9.90;99.90;;;;;;6149260;23;20680;-67
2021/11/17 15:30:44;;;;;;;23.50;14.30;;;9.90;99.90;;;;;;6147882;23;20984;-67
2021/11/17 15:33:12;;;;;;;26.23;15.30;;;9.90;99.90;;;;;;6149304;23;20597;-68
2021/11/17 15:35:41;;;;;;;24.17;13.80;;;9.90;99.90;;;;;;6149311;23;20573;-68
2021/11/17 15:38:09;;;;;;;26.50;16.17;;;9.90;99.90;;;;;;6147182;23;20573;-68
2021/11/17 15:40:55;;;;;;;25.20;14.97;;;9.90;99.90;;;;;;6146965;23;20707;-68
2021/11/17 15:43:31;;;;;;;28.03;15.80;;;9.90;99.90;;;;;;6149235;23;20647;-69
2021/11/17 15:45:57;;;;;;;26.57;15.17;;;9.90;99.90;;;;;;6151342;23;20513;-68
2021/11/17 15:48:24;;;;;;;25.07;14.23;;;9.90;99.90;;;;;;6149066;23;20688;-68
2021/11/17 15:51:13;;;;;;;21.77;13.40;;;9.90;99.90;;;;;;6149727;23;20265;-68
2021/11/17 15:53:42;;;;;;;21.00;13.07;;;9.90;99.90;;;;;;6146343;23;20589;-68
2021/11/17 15:56:11;;;;;;;21.87;12.20;;;9.90;99.90;;;;;;6144294;23;20553;-68
2021/11/17 15:58:49;;;;;;;;;;;;;;;;;;;;;
2021/11/17 16:01:24;;;;;;;24.83;13.10;;;9.90;99.90;;;;;;6148683;23;20592;-69
2021/11/17 16:04:08;;;;;;;22.10;10.43;;;9.90;99.90;;;;;;6144219;23;20604;-69
2021/11/17 16:06:55;;;;;;;31.90;12.20;;;9.90;99.90;;;;;;6149499;23;20960;-68
2021/11/17 16:09:37;;;;;;;19.93;11.00;;;9.90;99.90;;;;;;6148653;23;20608;-68
2021/11/17 16:12:03;;;;;;;19.13;12.17;;;9.80;99.90;;;;;;6149477;23;21019;-69
2021/11/17 16:14:29;;;;;;;21.97;12.80;;;9.90;99.90;;;;;;6148641;23;20559;-69
2021/11/17 16:16:56;;;;;;;21.50;12.77;;;9.80;99.90;;;;;;6149960;23;20537;-69
2021/11/17 16:19:27;;;;;;;23.87;12.70;;;9.80;99.90;;;;;;6147843;23;20577;-68
2021/11/17 16:21:55;;;;;;;21.97;12.50;;;9.80;99.90;;;;;;6148025;23;20612;-68